createdAt,value
2022-11-23T00:01:40.492Z,2.50
2022-11-23T00:03:42.737Z,2.42
2022-11-23T00:05:44.365Z,2.83
2022-11-23T00:07:45.951Z,3.10
2022-11-23T00:09:47.895Z,3.05
2022-11-23T00:11:49.493Z,2.67
2022-11-23T00:13:59.916Z,2.95
2022-11-23T00:16:14.785Z,3.30
2022-11-23T00:18:19.376Z,3.25
2022-11-23T00:20:21.212Z,2.85
2022-11-23T00:22:25.940Z,2.80
2022-11-23T00:24:33.601Z,3.20
2022-11-23T00:26:39.824Z,2.90
2022-11-23T00:28:44.232Z,2.80
2022-11-23T00:30:50.159Z,3.42
2022-11-23T00:32:51.671Z,3.28
2022-11-23T00:34:53.164Z,2.97
2022-11-23T00:36:59.919Z,3.72
2022-11-23T00:39:03.833Z,3.35
2022-11-23T00:41:08.978Z,3.47
2022-11-23T00:43:10.682Z,3.20
2022-11-23T00:45:12.437Z,3.55
2022-11-23T00:47:14.145Z,3.28
2022-11-23T00:49:17.967Z,3.08
2022-11-23T00:51:22.816Z,3.60
2022-11-23T00:53:24.407Z,3.13
2022-11-23T00:55:26.117Z,3.60
2022-11-23T00:57:27.717Z,3.05
2022-11-23T00:59:29.865Z,3.08
2022-11-23T01:01:34.518Z,3.40
2022-11-23T01:03:38.587Z,3.30
2022-11-23T01:05:40.602Z,3.20
2022-11-23T01:07:42.165Z,3.15
2022-11-23T01:09:45.516Z,3.60
2022-11-23T01:11:47.907Z,3.50
2022-11-23T01:13:50.300Z,3.58
2022-11-23T01:15:51.911Z,3.53
2022-11-23T01:17:54.450Z,4.00
2022-11-23T01:19:56.081Z,3.28
2022-11-23T01:21:57.884Z,3.28
2022-11-23T01:24:17.220Z,3.28
2022-11-23T01:26:19.253Z,3.22
2022-11-23T01:28:20.757Z,3.00
2022-11-23T01:30:22.467Z,2.92
2022-11-23T01:32:26.471Z,3.50
2022-11-23T01:34:28.303Z,3.22
2022-11-23T01:36:34.214Z,3.40
2022-11-23T01:38:35.849Z,3.08
2022-11-23T01:40:42.738Z,3.10
2022-11-23T01:42:52.529Z,3.25
2022-11-23T01:45:32.723Z,2.63
2022-11-23T01:47:35.995Z,2.70
2022-11-23T01:49:48.896Z,2.83
2022-11-23T01:51:53.642Z,2.90
2022-11-23T01:54:00.535Z,2.63
2022-11-23T01:56:06.098Z,2.53
2022-11-23T01:58:10.494Z,3.22
2022-11-23T02:00:13.483Z,2.38
2022-11-23T02:02:16.395Z,2.70
2022-11-23T02:04:28.053Z,2.85
2022-11-23T02:06:31.383Z,2.60
2022-11-23T02:08:37.484Z,2.85
2022-11-23T02:10:39.207Z,2.92
2022-11-23T02:12:44.844Z,3.10
2022-11-23T02:14:47.347Z,2.85
2022-11-23T02:16:49.100Z,2.28
2022-11-23T02:18:51.903Z,2.85
2022-11-23T02:20:57.231Z,2.30
2022-11-23T02:23:04.577Z,2.90
2022-11-23T02:25:18.132Z,2.72
2022-11-23T02:27:21.436Z,2.33
2022-11-23T02:29:26.770Z,2.53
2022-11-23T02:31:28.940Z,2.30
2022-11-23T02:33:33.777Z,2.70
2022-11-23T02:35:35.733Z,2.95
2022-11-23T02:37:37.880Z,2.78
2022-11-23T02:39:47.159Z,2.35
2022-11-23T02:41:51.412Z,2.30
2022-11-23T02:43:56.715Z,2.40
2022-11-23T02:46:04.229Z,2.15
2022-11-23T02:48:05.885Z,2.90
2022-11-23T02:50:07.827Z,2.78
2022-11-23T02:52:09.938Z,2.85
2022-11-23T02:54:14.232Z,2.47
2022-11-23T02:56:18.081Z,2.35
2022-11-23T02:58:25.200Z,2.83
2022-11-23T03:00:26.876Z,2.30
2022-11-23T03:02:37.199Z,2.47
2022-11-23T03:04:38.873Z,2.53
2022-11-23T03:06:41.408Z,2.50
2022-11-23T03:08:42.990Z,2.40
2022-11-23T03:10:45.808Z,2.70
2022-11-23T03:12:53.639Z,2.50
2022-11-23T03:14:58.219Z,2.63
2022-11-23T03:17:00.299Z,2.42
2022-11-23T03:19:05.997Z,2.75
2022-11-23T03:21:09.089Z,2.65
2022-11-23T03:23:12.670Z,2.50
2022-11-23T03:25:15.455Z,2.80
2022-11-23T03:27:19.866Z,2.38
2022-11-23T03:29:29.458Z,2.72
2022-11-23T03:31:36.309Z,2.20
2022-11-23T03:33:40.471Z,2.60
2022-11-23T03:35:45.035Z,2.85
2022-11-23T03:37:59.707Z,2.95
2022-11-23T03:40:01.748Z,2.70
2022-11-23T03:42:09.851Z,2.38
2022-11-23T03:44:12.906Z,2.55
2022-11-23T03:46:17.272Z,2.33
2022-11-23T03:48:21.926Z,2.50
2022-11-23T03:50:24.009Z,2.53
2022-11-23T03:52:25.796Z,2.40
2022-11-23T03:54:27.382Z,2.42
2022-11-23T03:56:28.972Z,2.40
2022-11-23T03:58:31.539Z,2.45
2022-11-23T04:00:36.719Z,2.30
2022-11-23T04:02:38.892Z,2.60
2022-11-23T04:04:44.220Z,2.38
2022-11-23T04:07:18.137Z,2.45
2022-11-23T04:09:25.448Z,2.63
2022-11-23T04:11:47.027Z,2.35
2022-11-23T04:13:52.662Z,2.45
2022-11-23T04:15:54.457Z,2.83
2022-11-23T04:17:56.973Z,2.40
2022-11-23T04:19:58.533Z,2.00
2022-11-23T04:22:00.359Z,2.70
2022-11-23T04:24:06.892Z,2.70
2022-11-23T04:26:10.815Z,2.05
2022-11-23T04:28:16.319Z,2.63
2022-11-23T04:30:20.207Z,2.80
2022-11-23T04:32:22.232Z,2.72
2022-11-23T04:34:24.496Z,2.90
2022-11-23T04:36:28.237Z,2.92
2022-11-23T04:38:34.671Z,2.75
2022-11-23T04:40:39.184Z,2.13
2022-11-23T04:42:42.304Z,2.60
2022-11-23T04:44:43.983Z,2.75
2022-11-23T04:46:45.741Z,2.35
2022-11-23T04:48:48.931Z,2.53
2022-11-23T04:50:55.422Z,2.78
2022-11-23T04:53:05.222Z,2.38
2022-11-23T04:55:14.616Z,2.60
2022-11-23T04:57:24.608Z,2.40
2022-11-23T04:59:27.268Z,2.40
2022-11-23T05:01:29.070Z,2.67
2022-11-23T05:03:59.938Z,2.55
2022-11-23T05:06:03.640Z,2.40
2022-11-23T05:08:12.853Z,2.42
2022-11-23T05:10:37.934Z,2.38
2022-11-23T05:12:39.939Z,2.40
2022-11-23T05:14:43.538Z,2.58
2022-11-23T05:16:47.016Z,2.60
2022-11-23T05:18:50.080Z,2.80
2022-11-23T05:20:51.773Z,2.45
2022-11-23T05:22:53.690Z,2.58
2022-11-23T05:24:58.269Z,2.30
2022-11-23T05:27:01.106Z,2.60
2022-11-23T05:29:03.028Z,2.80
2022-11-23T05:31:06.053Z,2.50
2022-11-23T05:33:11.204Z,2.92
2022-11-23T05:35:15.021Z,2.30
2022-11-23T05:37:19.545Z,2.75
2022-11-23T05:39:27.951Z,2.50
2022-11-23T05:41:29.768Z,2.75
2022-11-23T05:43:34.763Z,2.40
2022-11-23T05:45:36.773Z,2.58
2022-11-23T05:47:40.422Z,2.70
2022-11-23T05:49:53.158Z,2.55
2022-11-23T05:51:59.360Z,2.88
2022-11-23T05:54:02.946Z,2.60
2022-11-23T05:56:19.735Z,2.50
2022-11-23T05:58:37.390Z,2.63
2022-11-23T06:00:41.953Z,3.33
2022-11-23T06:02:44.179Z,2.83
2022-11-23T06:04:47.802Z,2.90
2022-11-23T06:06:59.225Z,3.20
2022-11-23T06:09:01.749Z,3.35
2022-11-23T06:11:04.757Z,3.17
2022-11-23T06:13:07.499Z,3.40
2022-11-23T06:15:10.401Z,2.75
2022-11-23T06:17:14.839Z,2.72
2022-11-23T06:19:19.637Z,2.95
2022-11-23T06:21:22.809Z,2.70
2022-11-23T06:23:24.988Z,3.00
2022-11-23T06:25:38.047Z,2.58
2022-11-23T06:28:00.446Z,2.50
2022-11-23T06:30:09.432Z,2.85
2022-11-23T06:32:14.068Z,2.45
2022-11-23T06:34:16.660Z,2.45
2022-11-23T06:36:18.538Z,3.15
2022-11-23T06:38:24.053Z,2.67
2022-11-23T06:40:45.401Z,2.75
2022-11-23T06:42:50.223Z,2.65
2022-11-23T06:44:59.373Z,2.72
2022-11-23T06:47:04.891Z,2.60
2022-11-23T06:49:06.596Z,2.60
2022-11-23T06:51:08.245Z,2.67
2022-11-23T06:53:14.669Z,2.80
2022-11-23T06:55:22.118Z,2.30
2022-11-23T06:57:26.265Z,2.70
2022-11-23T06:59:29.311Z,2.60
2022-11-23T07:01:31.352Z,2.63
2022-11-23T07:03:40.691Z,2.33
2022-11-23T07:06:13.104Z,2.30
2022-11-23T07:08:16.746Z,2.80
2022-11-23T07:10:19.859Z,2.47
2022-11-23T07:12:25.991Z,2.60
2022-11-23T07:14:28.087Z,2.47
2022-11-23T07:16:31.040Z,2.78
2022-11-23T07:18:33.106Z,2.38
2022-11-23T07:20:36.958Z,2.78
2022-11-23T07:22:45.360Z,2.25
2022-11-23T07:24:49.131Z,2.58
2022-11-23T07:26:51.216Z,2.30
2022-11-23T07:28:55.483Z,2.60
2022-11-23T07:30:57.660Z,2.70
2022-11-23T07:33:08.204Z,2.60
2022-11-23T07:35:14.027Z,2.63
2022-11-23T07:37:18.581Z,2.50
2022-11-23T07:39:32.117Z,2.58
2022-11-23T07:41:42.494Z,2.97
2022-11-23T07:43:51.690Z,2.53
2022-11-23T07:45:58.439Z,2.40
2022-11-23T07:48:08.603Z,2.67
2022-11-23T07:50:13.355Z,2.53
2022-11-23T07:52:17.781Z,2.65
2022-11-23T07:54:23.522Z,2.85
2022-11-23T07:56:28.633Z,2.60
2022-11-23T07:58:32.503Z,2.55
2022-11-23T08:00:34.166Z,2.50
2022-11-23T08:02:39.149Z,2.45
2022-11-23T08:04:44.002Z,2.40
2022-11-23T08:06:45.675Z,3.13
2022-11-23T08:08:47.316Z,3.10
2022-11-23T08:10:53.367Z,2.70
2022-11-23T08:13:00.132Z,2.40
2022-11-23T08:15:02.012Z,2.63
2022-11-23T08:17:05.682Z,2.53
2022-11-23T08:19:07.956Z,2.58
2022-11-23T08:21:09.632Z,2.60
2022-11-23T08:23:12.345Z,2.40
2022-11-23T08:25:14.308Z,2.65
2022-11-23T08:27:16.246Z,2.38
2022-11-23T08:29:21.028Z,2.88
2022-11-23T08:31:22.552Z,2.15
2022-11-23T08:33:26.830Z,2.65
2022-11-23T08:35:28.483Z,2.30
2022-11-23T08:37:37.517Z,2.53
2022-11-23T08:39:39.442Z,2.58
2022-11-23T08:41:42.044Z,2.50
2022-11-23T08:43:43.740Z,2.50
2022-11-23T08:45:45.397Z,2.50
2022-11-23T08:47:55.888Z,2.47
2022-11-23T08:49:57.475Z,2.38
2022-11-23T08:52:00.085Z,2.42
2022-11-23T08:54:01.704Z,2.35
2022-11-23T08:56:07.333Z,2.47
2022-11-23T08:58:13.657Z,2.38
2022-11-23T09:00:15.776Z,2.58
2022-11-23T09:02:17.395Z,2.20
2022-11-23T09:04:20.854Z,2.25
2022-11-23T09:06:28.982Z,2.25
2022-11-23T09:08:31.291Z,2.40
2022-11-23T09:10:36.117Z,2.65
2022-11-23T09:12:38.174Z,2.60
2022-11-23T09:14:43.672Z,2.20
2022-11-23T09:16:45.298Z,2.20
2022-11-23T09:18:49.415Z,2.75
2022-11-23T09:20:51.456Z,2.78
2022-11-23T09:22:54.878Z,2.25
2022-11-23T09:24:56.605Z,2.50
2022-11-23T09:26:58.439Z,2.78
2022-11-23T09:29:00.109Z,2.55
2022-11-23T09:31:04.432Z,2.63
2022-11-23T09:33:09.352Z,2.38
2022-11-23T09:35:12.331Z,2.15
2022-11-23T09:37:16.309Z,2.28
2022-11-23T09:39:18.170Z,2.33
2022-11-23T09:41:56.738Z,2.60
2022-11-23T09:44:34.811Z,2.47
2022-11-23T09:47:06.301Z,2.47
2022-11-23T09:49:18.906Z,2.72
2022-11-23T09:51:23.230Z,3.20
2022-11-23T09:53:45.637Z,2.38
2022-11-23T09:55:50.414Z,2.53
2022-11-23T09:58:04.423Z,2.40
2022-11-23T10:00:15.774Z,2.78
2022-11-23T10:02:23.092Z,2.50
2022-11-23T10:04:32.931Z,2.63
2022-11-23T10:06:40.519Z,2.30
2022-11-23T10:09:19.383Z,2.53
2022-11-23T10:11:30.627Z,2.30
2022-11-23T10:13:56.648Z,2.25
2022-11-23T10:16:00.750Z,2.78
2022-11-23T10:18:13.991Z,2.45
2022-11-23T10:20:50.442Z,2.78
2022-11-23T10:23:00.504Z,2.60
2022-11-23T10:25:12.903Z,2.60
2022-11-23T10:27:25.047Z,2.42
2022-11-23T10:29:42.084Z,2.47
2022-11-23T10:32:22.536Z,2.70
2022-11-23T10:34:40.939Z,2.70
2022-11-23T10:36:45.369Z,2.50
2022-11-23T10:38:59.986Z,2.50
2022-11-23T10:41:18.760Z,2.63
2022-11-23T10:43:28.730Z,2.53
2022-11-23T10:45:40.040Z,3.00
2022-11-23T10:47:53.309Z,2.30
2022-11-23T10:49:58.725Z,2.40
2022-11-23T10:52:30.586Z,2.63
2022-11-23T10:54:47.388Z,2.80
2022-11-23T10:56:50.894Z,2.72
2022-11-23T10:58:52.640Z,2.50
2022-11-23T11:01:12.511Z,2.55
2022-11-23T11:03:25.277Z,2.70
2022-11-23T11:06:09.525Z,2.67
2022-11-23T11:08:15.312Z,2.92
2022-11-23T11:10:43.105Z,2.72
2022-11-23T11:12:51.398Z,2.67
2022-11-23T11:15:10.798Z,2.53
2022-11-23T11:17:28.363Z,2.55
2022-11-23T11:19:29.956Z,2.58
2022-11-23T11:21:41.084Z,2.30
2022-11-23T11:23:47.906Z,2.50
2022-11-23T11:26:22.746Z,2.42
2022-11-23T11:32:02.531Z,2.97
2022-11-23T11:34:55.334Z,2.35
2022-11-23T11:37:12.224Z,2.28
2022-11-23T11:40:15.202Z,2.60
2022-11-23T11:42:09.273Z,2.42
2022-11-23T11:45:07.775Z,2.40
2022-11-23T11:47:31.089Z,2.55
2022-11-23T11:49:44.210Z,2.47
2022-11-23T11:54:37.212Z,2.38
2022-11-23T11:56:46.449Z,2.05
2022-11-23T11:59:13.545Z,2.70
2022-11-23T12:01:16.544Z,2.53
2022-11-23T12:03:21.092Z,2.35
2022-11-23T12:05:36.591Z,2.28
2022-11-23T12:08:15.310Z,1.95
2022-11-23T12:10:27.978Z,1.90
2022-11-23T12:12:32.006Z,2.42
2022-11-23T12:14:33.801Z,2.20
2022-11-23T12:19:36.675Z,1.40
2022-11-23T12:21:59.908Z,1.67
2022-11-23T12:24:22.090Z,2.08
2022-11-23T12:26:39.300Z,2.20
2022-11-23T12:29:10.366Z,2.13
2022-11-23T12:31:33.081Z,1.98
2022-11-23T12:33:55.407Z,1.98
2022-11-23T12:36:23.793Z,2.00
2022-11-23T12:38:48.104Z,1.83
2022-11-23T12:41:13.055Z,1.60
2022-11-23T12:43:36.677Z,1.70
2022-11-23T12:45:56.396Z,1.63
2022-11-23T12:48:22.112Z,1.40
2022-11-23T12:50:51.703Z,1.60
2022-11-23T12:53:18.678Z,2.00
2022-11-23T12:55:29.205Z,1.52
2022-11-23T12:57:43.966Z,1.30
2022-11-23T12:59:54.886Z,1.55
2022-11-23T13:02:04.013Z,1.48
2022-11-23T13:04:24.520Z,1.63
2022-11-23T13:07:28.030Z,1.63
2022-11-23T13:09:40.228Z,1.48
2022-11-23T13:12:12.116Z,1.60
2022-11-23T13:14:42.774Z,1.77
2022-11-23T13:17:04.656Z,1.60
2022-11-23T13:19:27.211Z,1.52
2022-11-23T13:21:42.822Z,1.70
2022-11-23T13:23:44.720Z,1.63
2022-11-23T13:26:18.168Z,1.52
2022-11-23T13:28:32.211Z,2.00
2022-11-23T13:31:07.174Z,1.35
2022-11-23T13:33:01.428Z,1.40
2022-11-23T13:35:04.977Z,1.88
2022-11-23T13:37:14.116Z,1.85
2022-11-23T13:39:37.951Z,1.90
2022-11-23T13:41:39.951Z,1.98
2022-11-23T13:43:41.853Z,1.55
2022-11-23T13:45:47.603Z,1.73
2022-11-23T13:48:54.769Z,2.05
2022-11-23T13:50:49.228Z,1.73
2022-11-23T13:52:51.925Z,1.98
2022-11-23T13:55:13.229Z,1.80
2022-11-23T13:57:15.046Z,2.00
2022-11-23T13:59:25.146Z,1.85
2022-11-23T14:02:03.176Z,1.40
2022-11-23T14:04:23.589Z,1.70
2022-11-23T14:06:34.753Z,1.70
2022-11-23T14:08:39.754Z,1.67
2022-11-23T14:10:44.247Z,1.40
2022-11-23T14:13:17.223Z,1.50
2022-11-23T14:15:22.326Z,1.48
2022-11-23T14:17:50.145Z,1.30
2022-11-23T14:20:11.646Z,1.70
2022-11-23T14:22:33.178Z,1.80
2022-11-23T14:24:46.277Z,1.63
2022-11-23T14:27:46.291Z,1.60
2022-11-23T14:29:53.303Z,1.80
2022-11-23T14:32:16.492Z,1.75
2022-11-23T14:34:35.664Z,2.00
2022-11-23T14:36:59.116Z,1.90
2022-11-23T14:39:09.986Z,1.33
2022-11-23T14:41:20.952Z,1.50
2022-11-23T14:43:22.706Z,1.60
2022-11-23T14:45:29.783Z,1.20
2022-11-23T14:47:32.422Z,1.10
2022-11-23T14:49:34.477Z,1.35
2022-11-23T14:51:43.492Z,1.60
2022-11-23T14:53:48.940Z,1.60
2022-11-23T14:55:50.608Z,1.77
2022-11-23T14:58:02.981Z,1.50
2022-11-23T15:00:11.456Z,1.40
2022-11-23T15:02:34.899Z,1.73
2022-11-23T15:04:55.149Z,2.10
2022-11-23T15:07:03.925Z,2.50
2022-11-23T15:09:27.546Z,2.97
2022-11-23T15:11:31.856Z,3.53
2022-11-23T15:13:44.244Z,4.28
2022-11-23T15:15:47.434Z,3.50
2022-11-23T15:17:52.021Z,3.90
2022-11-23T15:20:04.603Z,2.30
2022-11-23T15:22:16.393Z,2.58
2022-11-23T15:24:26.836Z,2.30
2022-11-23T15:28:52.474Z,2.40
2022-11-23T15:30:58.309Z,1.80
2022-11-23T15:33:11.486Z,1.90
2022-11-23T15:35:16.668Z,2.13
2022-11-23T15:37:19.091Z,2.10
2022-11-23T15:39:23.972Z,2.22
2022-11-23T15:41:27.789Z,2.65
2022-11-23T15:43:29.406Z,2.30
2022-11-23T15:45:39.446Z,2.38
2022-11-23T15:47:41.097Z,2.35
2022-11-23T15:49:42.996Z,2.88
2022-11-23T15:51:45.828Z,2.78
2022-11-23T15:53:50.549Z,2.92
2022-11-23T15:55:57.026Z,3.15
2022-11-23T15:58:07.618Z,3.25
2022-11-23T16:00:33.148Z,3.20
2022-11-23T16:02:37.554Z,2.72
2022-11-23T16:04:41.255Z,2.70
2022-11-23T16:06:52.740Z,3.25
2022-11-23T16:08:54.670Z,2.58
2022-11-23T16:10:57.366Z,2.42
2022-11-23T16:13:03.712Z,2.42
2022-11-23T16:15:27.513Z,2.70
2022-11-23T16:17:30.213Z,2.25
2022-11-23T16:19:35.403Z,2.47
2022-11-23T16:21:37.268Z,2.65
2022-11-23T16:23:55.339Z,2.88
2022-11-23T16:26:09.218Z,3.03
2022-11-23T16:28:29.725Z,3.58
2022-11-23T16:30:40.536Z,2.80
2022-11-23T16:32:42.296Z,3.00
2022-11-23T16:34:47.019Z,3.58
2022-11-23T16:36:49.371Z,3.30
2022-11-23T16:38:51.280Z,3.10
2022-11-23T16:40:53.043Z,2.92
2022-11-23T16:42:54.969Z,3.10
2022-11-23T16:44:56.564Z,3.25
2022-11-23T16:47:19.920Z,3.28
2022-11-23T16:49:23.697Z,3.38
2022-11-23T16:51:28.401Z,3.10
2022-11-23T16:53:47.159Z,3.65
2022-11-23T16:56:00.405Z,2.75
2022-11-23T16:58:01.991Z,3.10
2022-11-23T17:00:13.911Z,4.00
2022-11-23T17:02:19.279Z,3.55
2022-11-23T17:04:21.056Z,3.85
2022-11-23T17:06:25.764Z,3.42
2022-11-23T17:08:27.599Z,3.40
2022-11-23T17:10:32.924Z,4.20
2022-11-23T17:12:36.524Z,4.20
2022-11-23T17:14:42.367Z,3.83
2022-11-23T17:16:47.326Z,4.07
2022-11-23T17:18:49.065Z,4.25
2022-11-23T17:20:54.437Z,4.57
2022-11-23T17:23:00.146Z,4.75
2022-11-23T17:25:02.222Z,3.75
2022-11-23T17:27:03.849Z,4.35
2022-11-23T17:29:16.987Z,4.55
2022-11-23T17:31:21.921Z,4.30
2022-11-23T17:33:23.423Z,4.85
2022-11-23T17:35:25.205Z,4.88
2022-11-23T17:37:32.746Z,4.80
2022-11-23T17:39:34.784Z,4.93
2022-11-23T17:41:36.923Z,4.60
2022-11-23T17:43:38.659Z,5.28
2022-11-23T17:45:41.278Z,5.28
2022-11-23T17:47:46.948Z,4.88
2022-11-23T17:49:48.534Z,5.30
2022-11-23T17:51:50.166Z,5.03
2022-11-23T17:53:52.144Z,5.60
2022-11-23T17:55:53.935Z,5.55
2022-11-23T17:57:55.688Z,5.40
2022-11-23T18:00:01.969Z,5.55
2022-11-23T18:02:13.289Z,5.70
2022-11-23T18:04:15.302Z,5.47
2022-11-23T18:06:21.893Z,5.97
2022-11-23T18:08:26.727Z,5.65
2022-11-23T18:10:28.431Z,6.03
2022-11-23T18:12:32.131Z,5.97
2022-11-23T18:14:34.268Z,6.22
2022-11-23T18:16:38.778Z,6.45
2022-11-23T18:18:40.677Z,6.75
2022-11-23T18:20:43.777Z,5.88
2022-11-23T18:22:45.474Z,6.45
2022-11-23T18:24:47.538Z,6.05
2022-11-23T18:26:49.292Z,5.68
2022-11-23T18:28:55.078Z,5.97
2022-11-23T18:30:58.481Z,6.28
2022-11-23T18:33:00.093Z,5.93
2022-11-23T18:35:01.940Z,6.22
2022-11-23T18:37:03.796Z,5.25
2022-11-23T18:39:25.119Z,6.05
2022-11-23T18:41:29.665Z,6.03
2022-11-23T18:43:31.865Z,6.40
2022-11-23T18:45:36.710Z,6.30
2022-11-23T18:47:42.854Z,5.72
2022-11-23T18:49:44.914Z,6.03
2022-11-23T18:51:46.638Z,6.85
2022-11-23T18:53:50.009Z,7.13
2022-11-23T18:55:57.554Z,8.70
2022-11-23T18:58:02.616Z,10.15
2022-11-23T19:00:08.551Z,10.32
2022-11-23T19:02:11.171Z,11.35
2022-11-23T19:04:13.280Z,11.30
2022-11-23T19:06:17.549Z,11.10
2022-11-23T19:08:19.502Z,10.95
2022-11-23T19:10:22.629Z,11.00
2022-11-23T19:12:24.427Z,10.68
2022-11-23T19:14:26.694Z,11.00
2022-11-23T19:16:32.118Z,10.10
2022-11-23T19:18:35.326Z,11.35
2022-11-23T19:20:36.971Z,10.05
2022-11-23T19:22:38.834Z,10.10
2022-11-23T19:24:43.183Z,9.85
2022-11-23T19:26:52.220Z,10.07
2022-11-23T19:28:54.750Z,8.70
2022-11-23T19:31:00.387Z,8.73
2022-11-23T19:33:05.223Z,8.80
2022-11-23T19:35:07.614Z,7.47
2022-11-23T19:37:09.390Z,7.63
2022-11-23T19:39:11.097Z,7.47
2022-11-23T19:41:13.221Z,6.90
2022-11-23T19:43:14.809Z,6.93
2022-11-23T19:45:22.597Z,6.18
2022-11-23T19:47:30.449Z,6.70
2022-11-23T19:49:32.317Z,7.15
2022-11-23T19:51:34.934Z,6.65
2022-11-23T19:53:38.076Z,6.82
2022-11-23T19:55:41.817Z,6.72
2022-11-23T19:57:43.507Z,6.90
2022-11-23T19:59:51.777Z,6.10
2022-11-23T20:01:53.669Z,6.50
2022-11-23T20:03:57.885Z,7.30
2022-11-23T20:06:04.378Z,6.25
2022-11-23T20:08:06.311Z,6.82
2022-11-23T20:10:08.607Z,7.20
2022-11-23T20:12:10.298Z,7.18
2022-11-23T20:14:12.580Z,7.38
2022-11-23T20:16:19.007Z,7.47
2022-11-23T20:18:23.428Z,7.03
2022-11-23T20:20:29.286Z,7.40
2022-11-23T20:22:31.924Z,7.50
2022-11-23T20:24:35.629Z,7.38
2022-11-23T20:26:38.009Z,7.47
2022-11-23T20:28:39.750Z,7.00
2022-11-23T20:30:42.478Z,7.50
2022-11-23T20:32:44.620Z,7.38
2022-11-23T20:34:46.447Z,7.03
2022-11-23T20:36:48.209Z,7.70
2022-11-23T20:38:52.970Z,7.30
2022-11-23T20:40:54.713Z,7.55
2022-11-23T20:42:59.555Z,7.18
2022-11-23T20:45:04.251Z,7.90
2022-11-23T20:47:08.935Z,8.13
2022-11-23T20:49:10.620Z,7.40
2022-11-23T20:51:15.115Z,8.63
2022-11-23T20:53:22.915Z,7.78
2022-11-23T20:55:24.585Z,7.85
2022-11-23T20:57:26.284Z,9.00
2022-11-23T20:59:28.102Z,7.70
2022-11-23T21:01:32.746Z,8.35
2022-11-23T21:03:35.741Z,8.35
2022-11-23T21:05:37.702Z,9.02
2022-11-23T21:07:39.509Z,7.80
2022-11-23T21:09:44.655Z,7.47
2022-11-23T21:12:05.190Z,8.10
2022-11-23T21:14:17.553Z,8.40
2022-11-23T21:16:20.128Z,7.85
2022-11-23T21:18:21.646Z,8.65
2022-11-23T21:20:23.140Z,9.65
2022-11-23T21:22:27.891Z,9.88
2022-11-23T21:24:29.574Z,9.82
2022-11-23T21:26:31.689Z,9.45
2022-11-23T21:28:33.843Z,9.50
2022-11-23T21:30:36.276Z,8.68
2022-11-23T21:32:38.163Z,8.35
2022-11-23T21:34:40.070Z,9.52
2022-11-23T21:36:41.724Z,8.98
2022-11-23T21:38:43.604Z,8.77
2022-11-23T21:40:47.902Z,8.68
2022-11-23T21:42:51.857Z,8.68
2022-11-23T21:44:53.477Z,8.80
2022-11-23T21:46:55.244Z,9.07
2022-11-23T21:48:58.412Z,8.00
2022-11-23T21:51:08.018Z,8.38
2022-11-23T21:53:09.413Z,8.32
2022-11-23T21:55:10.970Z,9.15
2022-11-23T21:57:12.573Z,8.32
2022-11-23T21:59:14.408Z,8.30
2022-11-23T22:01:20.637Z,8.20
2022-11-23T22:03:22.712Z,8.88
2022-11-23T22:05:24.715Z,8.85
2022-11-23T22:07:26.621Z,8.02
2022-11-23T22:09:30.949Z,8.05
2022-11-23T22:11:35.130Z,8.35
2022-11-23T22:13:37.244Z,8.77
2022-11-23T22:15:39.065Z,8.30
2022-11-23T22:17:40.762Z,8.48
2022-11-23T22:19:45.588Z,8.98
2022-11-23T22:21:47.429Z,10.82
2022-11-23T22:23:49.048Z,12.80
2022-11-23T22:25:51.678Z,13.98
2022-11-23T22:27:53.895Z,12.65
2022-11-23T22:29:58.354Z,12.07
2022-11-23T22:31:59.982Z,11.45
2022-11-23T22:34:03.235Z,10.10
2022-11-23T22:36:12.300Z,10.40
2022-11-23T22:38:14.002Z,9.23
2022-11-23T22:40:16.349Z,9.32
2022-11-23T22:42:18.015Z,9.02
2022-11-23T22:44:19.573Z,8.27
2022-11-23T22:46:25.296Z,8.93
2022-11-23T22:48:29.947Z,8.70
2022-11-23T22:50:34.666Z,8.13
2022-11-23T22:52:36.290Z,9.60
2022-11-23T22:54:38.395Z,9.85
2022-11-23T22:56:42.424Z,9.82
2022-11-23T22:58:47.066Z,9.30
2022-11-23T23:00:51.510Z,8.88
2022-11-23T23:02:54.969Z,8.98
2022-11-23T23:04:56.665Z,8.85
2022-11-23T23:06:58.312Z,8.60
2022-11-23T23:09:01.281Z,8.50
2022-11-23T23:11:05.227Z,8.65
2022-11-23T23:13:07.173Z,8.43
2022-11-23T23:15:09.043Z,7.90
2022-11-23T23:17:10.858Z,8.57
2022-11-23T23:19:12.424Z,8.15
2022-11-23T23:21:33.143Z,8.32
2022-11-23T23:23:34.705Z,8.05
2022-11-23T23:25:38.531Z,7.93
2022-11-23T23:27:40.249Z,8.27
2022-11-23T23:29:42.678Z,8.13
2022-11-23T23:31:44.501Z,7.68
2022-11-23T23:33:46.120Z,7.90
2022-11-23T23:35:47.663Z,7.93
2022-11-23T23:37:51.032Z,8.63
2022-11-23T23:39:52.745Z,7.78
2022-11-23T23:41:54.330Z,8.15
2022-11-23T23:43:58.463Z,7.28
2022-11-23T23:46:02.340Z,7.57
2022-11-23T23:48:04.246Z,7.60
2022-11-23T23:50:06.897Z,7.45
2022-11-23T23:52:08.687Z,6.68
2022-11-23T23:54:10.647Z,7.53
2022-11-23T23:56:14.701Z,6.47
2022-11-23T23:58:16.372Z,6.30
